Time;durP1;ratioP1;P1;durP2;ratioP2;P2;SDS_P1;SDS_P2;PMS_P1;PMS_P2;Temp;Humidity;BMP_temperature;BMP_pressure;BME280_temperature;BME280_humidity;BME280_pressure;Samples;Min_cycle;Max_cycle;Signal;HPM_P1;HPM_P2
2023/08/14 00:00:46;;;;;;;3.72;2.50;;;21.20;99.90;;;;;;5047870;28;20197;-31
2023/08/14 00:03:18;;;;;;;4.05;2.20;;;21.20;99.90;;;;;;5047798;28;20219;-31
2023/08/14 00:05:45;;;;;;;5.63;2.47;;;21.10;99.90;;;;;;5047085;28;20224;-31
2023/08/14 00:08:15;;;;;;;6.53;2.40;;;21.10;99.90;;;;;;5047854;28;20679;-31
2023/08/14 00:10:47;;;;;;;3.80;2.28;;;21.10;99.90;;;;;;5046403;28;20200;-31
2023/08/14 00:13:20;;;;;;;4.32;2.08;;;21.00;99.90;;;;;;5048091;28;20205;-31
2023/08/14 00:15:50;;;;;;;4.07;2.15;;;21.00;99.90;;;;;;5047841;28;20208;-31
2023/08/14 00:18:20;;;;;;;2.45;1.88;;;20.90;99.90;;;;;;5045801;28;20223;-31
2023/08/14 00:20:48;;;;;;;3.72;2.20;;;20.90;99.90;;;;;;5047447;28;20211;-31
2023/08/14 00:23:17;;;;;;;4.05;2.40;;;20.90;99.90;;;;;;5047470;28;20722;-31
2023/08/14 00:25:44;;;;;;;5.30;2.70;;;20.90;99.90;;;;;;5045758;28;20224;-31
2023/08/14 00:28:12;;;;;;;4.22;2.30;;;20.90;99.90;;;;;;5047121;28;20388;-31
2023/08/14 00:30:41;;;;;;;4.80;2.85;;;20.90;99.90;;;;;;5045816;28;20583;-31
2023/08/14 00:33:11;;;;;;;4.90;2.35;;;20.80;99.90;;;;;;5045968;28;20211;-31
2023/08/14 00:35:43;;;;;;;5.25;2.67;;;20.80;99.90;;;;;;5013777;28;20339;-31
2023/08/14 00:38:16;;;;;;;3.30;2.40;;;20.80;99.90;;;;;;5045543;28;20237;-30
2023/08/14 00:40:46;;;;;;;6.50;2.60;;;20.80;99.90;;;;;;5047397;28;20219;-31
2023/08/14 00:43:15;;;;;;;6.25;2.70;;;20.70;99.90;;;;;;5047341;28;20204;-31
2023/08/14 00:45:43;;;;;;;4.20;2.10;;;20.70;99.90;;;;;;5046780;28;20592;-31
2023/08/14 00:48:16;;;;;;;5.30;2.20;;;20.70;99.90;;;;;;5045557;28;20202;-31
2023/08/14 00:50:45;;;;;;;4.45;2.33;;;20.70;99.90;;;;;;5046702;28;20204;-31
2023/08/14 00:53:14;;;;;;;5.93;2.13;;;20.60;99.90;;;;;;5028775;28;20196;-31
2023/08/14 00:55:45;;;;;;;3.80;2.20;;;20.60;99.90;;;;;;5046855;28;20209;-30
2023/08/14 00:58:13;;;;;;;4.57;2.15;;;20.50;99.90;;;;;;5036087;28;20535;-31
2023/08/14 01:00:42;;;;;;;4.05;2.30;;;20.50;99.90;;;;;;5009124;28;20662;-31
2023/08/14 01:03:12;;;;;;;4.95;2.35;;;20.50;99.90;;;;;;5009055;28;20875;-31
2023/08/14 01:05:42;;;;;;;3.70;2.38;;;20.40;99.90;;;;;;5024359;28;20221;-23
2023/08/14 01:08:12;;;;;;;6.18;2.90;;;20.40;99.90;;;;;;5011125;28;20220;-23
2023/08/14 01:11:01;;;;;;;4.60;2.60;;;20.40;99.90;;;;;;5024727;28;20652;-24
2023/08/14 01:13:49;;;;;;;4.72;2.47;;;20.30;99.90;;;;;;5024982;28;20205;-23
2023/08/14 01:16:24;;;;;;;4.28;2.90;;;20.30;99.90;;;;;;5011385;28;20267;-23
2023/08/14 01:18:55;;;;;;;3.83;2.40;;;20.20;99.90;;;;;;5014244;28;20231;-23
2023/08/14 01:21:26;;;;;;;4.43;2.55;;;20.20;99.90;;;;;;5004875;28;20201;-23
2023/08/14 01:24:19;;;;;;;3.95;2.40;;;20.20;99.90;;;;;;5012821;28;20197;-23
2023/08/14 01:26:47;;;;;;;5.00;2.70;;;20.10;99.90;;;;;;5026273;28;20725;-23
2023/08/14 01:29:15;;;;;;;4.05;2.33;;;20.10;99.90;;;;;;5026256;28;20643;-23
2023/08/14 01:31:42;;;;;;;3.95;2.40;;;20.00;99.90;;;;;;5023974;28;20197;-23
2023/08/14 01:34:13;;;;;;;4.10;2.33;;;20.00;99.90;;;;;;5023810;28;20675;-23
2023/08/14 01:36:55;;;;;;;4.80;2.33;;;20.00;99.90;;;;;;5026104;28;20232;-24
2023/08/14 01:39:26;;;;;;;4.70;2.40;;;20.00;99.90;;;;;;5026070;28;20236;-23
2023/08/14 01:42:06;;;;;;;5.97;2.22;;;20.00;99.90;;;;;;5026018;28;20778;-23
2023/08/14 01:44:38;;;;;;;4.63;2.40;;;20.00;99.90;;;;;;5024478;28;20765;-23
2023/08/14 01:47:13;;;;;;;3.47;2.47;;;19.90;99.90;;;;;;5009028;28;20271;-23
2023/08/14 01:49:43;;;;;;;4.40;2.28;;;19.90;99.90;;;;;;5026149;28;20715;-23
2023/08/14 01:52:11;;;;;;;2.45;1.98;;;19.90;99.90;;;;;;5025061;28;20502;-23
2023/08/14 01:54:40;;;;;;;3.90;2.25;;;19.90;99.90;;;;;;5025361;28;20477;-23
2023/08/14 01:57:09;;;;;;;4.45;2.50;;;19.90;99.90;;;;;;5024708;28;20705;-23
2023/08/14 01:59:46;;;;;;;3.28;2.60;;;19.90;99.90;;;;;;5026170;28;20204;-23
2023/08/14 02:02:14;;;;;;;3.83;2.40;;;19.90;99.90;;;;;;5024300;28;20217;-24
2023/08/14 02:04:41;;;;;;;3.75;2.28;;;19.80;99.90;;;;;;5026025;28;20204;-23
2023/08/14 02:07:12;;;;;;;4.55;2.60;;;19.80;99.90;;;;;;5025059;28;20282;-24
2023/08/14 02:09:41;;;;;;;5.25;2.28;;;19.80;99.90;;;;;;5024427;28;20213;-23
2023/08/14 02:12:09;;;;;;;4.60;2.17;;;19.80;99.90;;;;;;5024161;28;20753;-23
2023/08/14 02:14:36;;;;;;;4.18;2.10;;;19.70;99.90;;;;;;5025715;28;20551;-23
2023/08/14 02:17:03;;;;;;;3.22;2.08;;;19.70;99.90;;;;;;5024180;28;20209;-23
2023/08/14 02:19:32;;;;;;;3.80;2.33;;;19.70;99.90;;;;;;5025475;28;20579;-24
2023/08/14 02:21:59;;;;;;;3.20;2.13;;;19.70;99.90;;;;;;5024211;28;20204;-23
2023/08/14 02:24:31;;;;;;;4.32;2.40;;;19.70;99.90;;;;;;5025751;28;20260;-23
2023/08/14 02:26:59;;;;;;;4.65;2.00;;;19.70;99.90;;;;;;5025672;28;20241;-23
2023/08/14 02:29:31;;;;;;;3.70;2.30;;;19.60;99.90;;;;;;5026088;28;20205;-23
2023/08/14 02:32:00;;;;;;;3.50;2.03;;;19.60;99.90;;;;;;5008788;28;20563;-23
2023/08/14 02:34:46;;;;;;;4.68;2.55;;;19.60;99.90;;;;;;5025252;28;20742;-23
2023/08/14 02:37:15;;;;;;;2.95;1.90;;;19.50;99.90;;;;;;5025523;28;20270;-23
2023/08/14 02:39:50;;;;;;;3.17;2.13;;;19.50;99.90;;;;;;5024022;28;20244;-23
2023/08/14 02:42:20;;;;;;;3.63;2.40;;;19.40;99.90;;;;;;5008623;28;20230;-23
2023/08/14 02:44:51;;;;;;;5.25;2.20;;;19.40;99.90;;;;;;5024047;28;20193;-23
2023/08/14 02:47:18;;;;;;;3.42;2.50;;;19.40;99.90;;;;;;5025467;28;20254;-23
2023/08/14 02:49:45;;;;;;;4.25;2.08;;;19.40;99.90;;;;;;5024669;28;20198;-23
2023/08/14 02:52:15;;;;;;;3.53;2.30;;;19.30;99.90;;;;;;5024061;28;20201;-23
2023/08/14 02:54:42;;;;;;;3.58;2.03;;;19.30;99.90;;;;;;5023887;28;20220;-23
2023/08/14 02:57:12;;;;;;;4.55;2.30;;;19.30;99.90;;;;;;5025018;28;20212;-23
2023/08/14 02:59:40;;;;;;;3.65;2.30;;;19.30;99.90;;;;;;5025358;28;20614;-23
2023/08/14 03:02:10;;;;;;;3.17;2.00;;;19.30;99.90;;;;;;5025219;28;20209;-23
2023/08/14 03:04:37;;;;;;;5.07;2.50;;;19.30;99.90;;;;;;5024281;28;20208;-23
2023/08/14 03:07:04;;;;;;;4.70;2.53;;;19.20;99.90;;;;;;5024209;28;20768;-23
2023/08/14 03:09:32;;;;;;;3.25;2.10;;;19.20;99.90;;;;;;5025486;28;20610;-23
2023/08/14 03:12:01;;;;;;;3.75;2.35;;;19.20;99.90;;;;;;5023889;28;20597;-23
2023/08/14 03:14:31;;;;;;;4.80;2.65;;;19.20;99.90;;;;;;5025275;28;20205;-23
2023/08/14 03:16:58;;;;;;;4.07;2.42;;;19.20;99.90;;;;;;5025536;28;20201;-23
2023/08/14 03:19:25;;;;;;;4.47;2.20;;;19.10;99.90;;;;;;5028303;28;20280;-23
2023/08/14 03:21:52;;;;;;;4.82;2.50;;;19.10;99.90;;;;;;5027804;28;20212;-23
2023/08/14 03:24:28;;;;;;;4.20;2.40;;;19.10;99.90;;;;;;5028492;28;20736;-23
2023/08/14 03:26:55;;;;;;;4.38;2.50;;;19.00;99.90;;;;;;5028925;28;20228;-23
2023/08/14 03:29:27;;;;;;;4.13;2.30;;;19.00;99.90;;;;;;5026952;28;20630;-23
2023/08/14 03:31:54;;;;;;;3.35;2.03;;;19.00;99.90;;;;;;5010637;28;20886;-23
2023/08/14 03:34:23;;;;;;;5.50;2.78;;;19.00;99.90;;;;;;5026882;28;20235;-23
2023/08/14 03:36:51;;;;;;;3.35;2.20;;;18.90;99.90;;;;;;5026792;28;20260;-23
2023/08/14 03:39:19;;;;;;;4.00;2.58;;;18.90;99.90;;;;;;5026991;28;20244;-24
2023/08/14 03:41:46;;;;;;;3.53;2.42;;;18.90;99.90;;;;;;5029022;28;20208;-24
2023/08/14 03:44:13;;;;;;;2.92;2.20;;;18.90;99.90;;;;;;5027413;28;20278;-24
2023/08/14 03:46:40;;;;;;;5.00;2.50;;;18.90;99.90;;;;;;5010623;28;20231;-24
2023/08/14 03:49:08;;;;;;;3.90;2.25;;;18.80;99.90;;;;;;5026531;28;20695;-24
2023/08/14 03:51:35;;;;;;;5.30;2.90;;;18.80;99.90;;;;;;5028094;28;20494;-23
2023/08/14 03:54:02;;;;;;;4.90;2.63;;;18.80;99.90;;;;;;5026728;28;20220;-24
2023/08/14 03:56:34;;;;;;;3.88;2.50;;;18.80;99.90;;;;;;5026505;28;20217;-24
2023/08/14 03:59:01;;;;;;;4.45;2.90;;;18.80;99.90;;;;;;5026704;28;20224;-24
2023/08/14 04:01:29;;;;;;;4.97;2.35;;;18.70;99.90;;;;;;5027676;28;20608;-23
2023/08/14 04:03:56;;;;;;;3.95;2.38;;;18.70;99.90;;;;;;5026369;28;20581;-24
2023/08/14 04:06:28;;;;;;;5.78;2.38;;;18.70;99.90;;;;;;5026079;28;20313;-24
2023/08/14 04:08:57;;;;;;;4.15;2.72;;;18.70;99.90;;;;;;5028249;28;20193;-24
2023/08/14 04:11:24;;;;;;;4.53;2.40;;;18.70;99.90;;;;;;5026404;28;20205;-24
2023/08/14 04:13:52;;;;;;;4.65;2.38;;;18.70;99.90;;;;;;5028117;28;20698;-24
2023/08/14 04:16:19;;;;;;;5.32;2.25;;;18.60;99.90;;;;;;5026103;28;20200;-23
2023/08/14 04:18:48;;;;;;;3.35;2.20;;;18.60;99.90;;;;;;5026796;28;20197;-24
2023/08/14 04:21:18;;;;;;;4.65;2.95;;;18.60;99.90;;;;;;5026305;28;20311;-23
2023/08/14 04:23:46;;;;;;;4.97;2.55;;;18.60;99.90;;;;;;5025763;28;20686;-24
2023/08/14 04:26:13;;;;;;;5.18;2.58;;;18.60;99.90;;;;;;5025651;28;20217;-24
2023/08/14 04:28:40;;;;;;;5.53;2.55;;;18.60;99.90;;;;;;5026852;28;20695;-24
2023/08/14 04:31:07;;;;;;;4.80;2.95;;;18.60;99.90;;;;;;5025761;28;20267;-24
2023/08/14 04:33:37;;;;;;;3.42;2.38;;;18.60;99.90;;;;;;5027280;28;20201;-24
2023/08/14 04:36:07;;;;;;;4.80;2.60;;;18.60;99.90;;;;;;5027035;28;20231;-23
2023/08/14 04:38:34;;;;;;;4.78;2.72;;;18.60;99.90;;;;;;5026137;28;20239;-31
2023/08/14 04:41:01;;;;;;;5.03;2.65;;;18.60;99.90;;;;;;5025921;28;20223;-31
2023/08/14 04:43:31;;;;;;;8.55;3.03;;;18.50;99.90;;;;;;5009271;28;20607;-31
2023/08/14 04:46:01;;;;;;;6.80;2.55;;;18.50;99.90;;;;;;5025412;28;20217;-31
2023/08/14 04:48:29;;;;;;;5.15;3.00;;;18.50;99.90;;;;;;5025449;28;20563;-31
2023/08/14 04:50:58;;;;;;;3.92;2.47;;;18.60;99.90;;;;;;5025426;28;20205;-31
2023/08/14 04:53:27;;;;;;;5.57;2.55;;;18.60;99.90;;;;;;5009433;28;20613;-31
2023/08/14 04:55:59;;;;;;;6.40;2.75;;;18.60;99.90;;;;;;5009865;28;20255;-31
2023/08/14 04:58:33;;;;;;;3.83;2.80;;;18.60;99.90;;;;;;5025386;28;20224;-31
2023/08/14 05:01:00;;;;;;;5.80;2.75;;;18.60;99.90;;;;;;5025286;28;20295;-31
2023/08/14 05:03:30;;;;;;;3.72;2.50;;;18.60;99.90;;;;;;5025200;28;20205;-31
2023/08/14 05:05:57;;;;;;;3.95;2.80;;;18.60;99.90;;;;;;5026655;28;20244;-31
2023/08/14 05:08:26;;;;;;;4.40;2.67;;;18.60;99.90;;;;;;5026315;28;20232;-30
2023/08/14 05:10:56;;;;;;;5.20;2.65;;;18.60;99.90;;;;;;5025098;28;20209;-30
2023/08/14 05:13:23;;;;;;;3.03;2.47;;;18.70;99.90;;;;;;5025010;28;20246;-31
2023/08/14 05:15:51;;;;;;;5.40;2.50;;;18.70;99.90;;;;;;5026320;28;20209;-30
2023/08/14 05:18:36;;;;;;;3.45;2.70;;;18.70;99.90;;;;;;5026571;28;20250;-30
2023/08/14 05:21:06;;;;;;;5.53;2.90;;;18.70;99.90;;;;;;5026225;28;20271;-31
2023/08/14 05:23:35;;;;;;;5.68;2.75;;;18.70;99.90;;;;;;5026215;28;20208;-30
2023/08/14 05:26:04;;;;;;;4.57;2.50;;;18.70;99.90;;;;;;5024708;28;20220;-30
2023/08/14 05:28:34;;;;;;;4.10;2.95;;;18.70;99.90;;;;;;5026373;28;20556;-30
2023/08/14 05:31:03;;;;;;;3.72;2.55;;;18.70;99.90;;;;;;5024978;28;20216;-31
2023/08/14 05:33:36;;;;;;;6.07;3.15;;;18.70;99.90;;;;;;5026420;28;20209;-31
2023/08/14 05:36:03;;;;;;;4.47;3.00;;;18.70;99.90;;;;;;5026305;28;20693;-30
2023/08/14 05:38:30;;;;;;;6.30;3.13;;;18.70;99.90;;;;;;5026150;28;20718;-30
2023/08/14 05:40:58;;;;;;;6.32;3.05;;;18.70;99.90;;;;;;5023838;28;20203;-31
2023/08/14 05:43:26;;;;;;;4.55;2.92;;;18.70;99.90;;;;;;5025039;28;20868;-23
2023/08/14 05:45:55;;;;;;;6.70;2.65;;;18.70;99.90;;;;;;5025812;28;20626;-23
2023/08/14 05:48:22;;;;;;;3.38;2.63;;;18.70;99.90;;;;;;5024519;28;20330;-23
2023/08/14 05:50:52;;;;;;;2.90;2.33;;;18.70;99.90;;;;;;5025927;28;20208;-23
2023/08/14 05:53:22;;;;;;;5.60;2.70;;;18.70;99.90;;;;;;5025822;28;20197;-23
2023/08/14 05:55:49;;;;;;;3.78;2.38;;;18.70;99.90;;;;;;5025794;28;20204;-23
2023/08/14 05:58:16;;;;;;;5.18;2.65;;;18.80;99.90;;;;;;5024237;28;20580;-23
2023/08/14 06:00:44;;;;;;;4.72;2.50;;;18.80;99.90;;;;;;5024243;28;20205;-23
2023/08/14 06:03:11;;;;;;;2.55;2.35;;;18.80;99.90;;;;;;5024268;28;20204;-23
2023/08/14 06:05:41;;;;;;;3.47;2.30;;;18.90;99.90;;;;;;5024195;28;20197;-23
2023/08/14 06:08:08;;;;;;;4.95;2.38;;;18.90;99.90;;;;;;5024673;28;20576;-23
2023/08/14 06:10:36;;;;;;;6.15;2.65;;;19.00;99.90;;;;;;5025996;28;20227;-23
2023/08/14 06:13:08;;;;;;;5.05;2.55;;;19.00;99.90;;;;;;5025506;28;20795;-23
2023/08/14 06:15:35;;;;;;;5.78;2.78;;;19.00;99.90;;;;;;5024013;28;20694;-23
2023/08/14 06:18:03;;;;;;;3.70;2.58;;;19.10;99.90;;;;;;5025755;28;20258;-23
2023/08/14 06:20:30;;;;;;;5.53;3.10;;;19.20;99.90;;;;;;5007939;28;20259;-23
2023/08/14 06:23:02;;;;;;;3.90;2.90;;;19.20;99.90;;;;;;5024206;28;20213;-23
2023/08/14 06:25:31;;;;;;;3.80;2.38;;;19.30;99.90;;;;;;5024079;28;20227;-23
2023/08/14 06:27:58;;;;;;;11.35;2.97;;;19.30;99.90;;;;;;5025937;28;20657;-23
2023/08/14 06:30:28;;;;;;;4.55;2.85;;;19.50;99.90;;;;;;5024091;28;20220;-23
2023/08/14 06:32:55;;;;;;;3.20;2.40;;;19.60;99.90;;;;;;5025490;28;20247;-23
2023/08/14 06:35:25;;;;;;;4.07;3.00;;;19.60;99.90;;;;;;5023980;28;20196;-23
2023/08/14 06:37:52;;;;;;;2.83;2.25;;;19.70;99.90;;;;;;5025694;28;20211;-23
2023/08/14 06:40:21;;;;;;;4.03;2.05;;;19.80;99.90;;;;;;5025583;28;20221;-23
2023/08/14 06:42:52;;;;;;;8.13;3.05;;;19.90;99.90;;;;;;5025694;28;20204;-23
2023/08/14 06:45:21;;;;;;;5.78;2.80;;;20.00;99.90;;;;;;5025665;28;20197;-23
2023/08/14 06:47:51;;;;;;;6.20;2.78;;;20.00;99.90;;;;;;5007938;28;20244;-23
2023/08/14 06:50:21;;;;;;;7.47;2.65;;;20.10;99.90;;;;;;5023744;28;20200;-23
2023/08/14 06:52:52;;;;;;;5.20;2.45;;;20.20;99.90;;;;;;5027561;28;20609;-23
2023/08/14 06:55:20;;;;;;;5.78;2.75;;;20.30;99.90;;;;;;5029086;28;20224;-23
2023/08/14 06:57:50;;;;;;;5.82;2.28;;;20.30;99.90;;;;;;5027634;28;20217;-23
2023/08/14 07:00:17;;;;;;;6.80;2.20;;;20.30;99.90;;;;;;5028403;28;20197;-23
2023/08/14 07:02:47;;;;;;;4.95;2.15;;;20.40;99.90;;;;;;5046866;28;20208;-23
2023/08/14 07:05:14;;;;;;;6.82;2.25;;;20.40;99.90;;;;;;5048360;28;20262;-23
2023/08/14 07:07:41;;;;;;;10.20;2.70;;;20.50;99.90;;;;;;5047173;28;20296;-23
2023/08/14 07:10:11;;;;;;;8.93;2.30;;;20.50;99.90;;;;;;5047268;28;20200;-23
2023/08/14 07:12:38;;;;;;;5.25;2.22;;;20.50;99.90;;;;;;5048623;28;20456;-23
2023/08/14 07:15:11;;;;;;;7.18;2.22;;;20.50;99.90;;;;;;5048511;28;20231;-23
2023/08/14 07:17:43;;;;;;;3.95;2.30;;;20.60;99.90;;;;;;5047238;28;20200;-23
2023/08/14 07:20:14;;;;;;;4.35;1.83;;;20.60;99.90;;;;;;5047950;28;20196;-23
2023/08/14 07:22:41;;;;;;;5.07;2.13;;;20.70;99.90;;;;;;5048759;28;20200;-23
2023/08/14 07:25:08;;;;;;;6.68;2.08;;;20.70;99.90;;;;;;5030555;28;20212;-23
2023/08/14 07:27:35;;;;;;;8.23;2.38;;;20.70;99.90;;;;;;5046971;28;20220;-24
2023/08/14 07:30:06;;;;;;;4.60;1.90;;;20.80;99.90;;;;;;5046773;28;20200;-25
2023/08/14 07:32:33;;;;;;;5.18;1.77;;;20.80;99.90;;;;;;5047071;28;20613;-25
2023/08/14 07:35:01;;;;;;;3.00;1.70;;;20.80;99.90;;;;;;5046946;28;20189;-32
2023/08/14 07:37:28;;;;;;;3.72;1.75;;;20.90;99.90;;;;;;5046415;28;20223;-30
2023/08/14 07:39:58;;;;;;;5.18;1.95;;;20.90;99.90;;;;;;5046572;28;20332;-31
2023/08/14 07:42:28;;;;;;;4.18;1.70;;;21.00;99.90;;;;;;5046547;28;20200;-31
2023/08/14 07:45:00;;;;;;;4.97;1.70;;;21.10;99.90;;;;;;5030185;28;20215;-31
2023/08/14 07:47:27;;;;;;;6.63;2.15;;;21.10;99.90;;;;;;5046241;28;20628;-31
2023/08/14 07:49:54;;;;;;;3.72;1.60;;;21.20;99.90;;;;;;5047971;28;20200;-31
2023/08/14 07:52:22;;;;;;;3.50;1.63;;;21.20;99.90;;;;;;5046535;28;20234;-31
2023/08/14 07:54:51;;;;;;;3.70;1.73;;;21.30;99.90;;;;;;5046818;28;20250;-31
2023/08/14 07:57:18;;;;;;;5.72;1.85;;;21.40;99.90;;;;;;5048075;28;20277;-31
2023/08/14 07:59:46;;;;;;;4.32;1.67;;;21.40;99.90;;;;;;5047766;28;20208;-23
2023/08/14 08:02:16;;;;;;;3.60;1.60;;;21.50;99.90;;;;;;5047589;28;20246;-23
2023/08/14 08:04:46;;;;;;;2.42;1.48;;;21.60;99.90;;;;;;5046800;28;20204;-23
2023/08/14 08:07:14;;;;;;;5.38;1.63;;;21.60;99.90;;;;;;5029891;28;20231;-23
2023/08/14 08:09:43;;;;;;;3.67;1.63;;;21.60;99.90;;;;;;5047462;28;20212;-23
2023/08/14 08:12:15;;;;;;;4.43;1.70;;;21.70;99.90;;;;;;5046304;28;20370;-23
2023/08/14 08:14:45;;;;;;;3.47;2.00;;;21.80;99.90;;;;;;5048015;28;20641;-23
2023/08/14 08:17:17;;;;;;;2.92;1.77;;;21.90;99.90;;;;;;5045842;28;20251;-23
2023/08/14 08:19:47;;;;;;;2.97;1.30;;;21.90;99.90;;;;;;5045754;28;20488;-23
2023/08/14 08:22:16;;;;;;;3.30;1.90;;;22.00;99.90;;;;;;5047023;28;20212;-23
2023/08/14 08:24:47;;;;;;;6.57;2.15;;;22.00;99.90;;;;;;5045807;28;20310;-23
2023/08/14 08:27:14;;;;;;;4.85;1.85;;;22.10;99.90;;;;;;5045895;28;20208;-23
2023/08/14 08:29:42;;;;;;;4.18;1.63;;;22.20;99.90;;;;;;5047249;28;20657;-23
2023/08/14 08:32:18;;;;;;;5.35;2.10;;;22.20;99.90;;;;;;5046064;28;20701;-23
2023/08/14 08:34:46;;;;;;;2.95;1.40;;;22.30;99.90;;;;;;5046965;28;20231;-23
2023/08/14 08:37:19;;;;;;;4.07;1.50;;;22.30;99.90;;;;;;5045542;28;20278;-31
2023/08/14 08:39:48;;;;;;;4.40;1.60;;;22.40;99.90;;;;;;5046937;28;20240;-31
2023/08/14 08:42:18;;;;;;;3.28;1.50;;;22.40;99.90;;;;;;5046795;28;20499;-31
2023/08/14 08:44:52;;;;;;;3.25;1.48;;;22.50;99.90;;;;;;5045991;28;20216;-31
2023/08/14 08:47:24;;;;;;;5.95;1.70;;;22.60;99.90;;;;;;5046876;28;20297;-31
2023/08/14 08:49:52;;;;;;;4.35;1.60;;;22.60;99.90;;;;;;5045473;28;20704;-31
2023/08/14 08:52:22;;;;;;;5.80;1.58;;;22.70;99.90;;;;;;5045132;28;20219;-31
2023/08/14 08:54:52;;;;;;;3.50;1.67;;;22.70;99.90;;;;;;5046861;28;20643;-31
2023/08/14 08:57:21;;;;;;;5.55;1.65;;;22.70;99.90;;;;;;5046762;28;20207;-31
2023/08/14 08:59:53;;;;;;;3.55;1.60;;;22.80;99.90;;;;;;5045015;28;20219;-31
2023/08/14 09:02:20;;;;;;;3.20;1.50;;;22.80;99.90;;;;;;5044787;28;20767;-31
2023/08/14 09:04:50;;;;;;;5.40;1.75;;;22.90;99.90;;;;;;5046529;28;20215;-31
2023/08/14 09:07:18;;;;;;;5.47;1.77;;;22.90;99.90;;;;;;5029215;28;20613;-31
2023/08/14 09:09:45;;;;;;;3.60;1.60;;;23.00;99.90;;;;;;5046936;28;20200;-31
2023/08/14 09:12:12;;;;;;;5.82;1.77;;;23.00;99.90;;;;;;5044974;28;20228;-31
2023/08/14 09:14:42;;;;;;;3.95;1.73;;;23.00;99.90;;;;;;5044123;28;20196;-31
2023/08/14 09:17:11;;;;;;;3.38;1.48;;;23.10;99.90;;;;;;5046414;28;20204;-30
2023/08/14 09:19:43;;;;;;;6.40;1.60;;;23.10;99.90;;;;;;5046901;28;20212;-30
2023/08/14 09:22:11;;;;;;;3.13;1.60;;;23.10;99.90;;;;;;5045091;28;20291;-30
2023/08/14 09:24:38;;;;;;;4.45;1.60;;;23.20;99.90;;;;;;5044390;28;20200;-31
2023/08/14 09:27:08;;;;;;;5.93;1.77;;;23.20;99.90;;;;;;5044494;28;20225;-30
2023/08/14 09:29:35;;;;;;;3.97;1.60;;;23.30;99.90;;;;;;5044481;28;20261;-31
2023/08/14 09:32:03;;;;;;;4.22;2.10;;;23.30;99.90;;;;;;5045736;28;20208;-31
2023/08/14 09:34:30;;;;;;;5.70;2.08;;;23.30;99.90;;;;;;5044416;28;20197;-23
2023/08/14 09:37:00;;;;;;;5.80;1.55;;;23.40;99.90;;;;;;5045677;28;20204;-23
2023/08/14 09:39:27;;;;;;;4.60;1.60;;;23.40;99.90;;;;;;5044352;28;20224;-23
2023/08/14 09:41:59;;;;;;;3.45;1.60;;;23.40;99.90;;;;;;5045722;28;20310;-23
2023/08/14 09:44:27;;;;;;;4.93;1.55;;;23.50;99.90;;;;;;5044593;28;20204;-23
2023/08/14 09:46:54;;;;;;;4.05;1.83;;;23.50;99.90;;;;;;5044551;28;20754;-23
2023/08/14 09:49:30;;;;;;;4.88;1.63;;;23.60;99.90;;;;;;5044193;28;20203;-23
2023/08/14 09:51:57;;;;;;;4.82;1.27;;;23.60;99.90;;;;;;5044099;28;20203;-23
2023/08/14 09:54:32;;;;;;;4.38;1.77;;;23.60;99.90;;;;;;5044029;28;20212;-23
2023/08/14 09:57:05;;;;;;;7.97;1.85;;;23.70;99.90;;;;;;5045584;28;20207;-23
2023/08/14 09:59:36;;;;;;;3.10;1.75;;;23.70;99.90;;;;;;5045596;28;20211;-23
2023/08/14 10:02:15;;;;;;;3.05;1.35;;;23.70;99.90;;;;;;5043996;28;20771;-23
2023/08/14 10:04:51;;;;;;;3.22;1.30;;;23.70;99.90;;;;;;5045409;28;20694;-23
2023/08/14 10:07:25;;;;;;;4.43;1.25;;;23.80;99.90;;;;;;5045348;28;20243;-23
2023/08/14 10:10:03;;;;;;;4.97;1.70;;;23.80;99.90;;;;;;5045431;28;20494;-22
2023/08/14 10:12:41;;;;;;;3.38;1.80;;;23.80;99.90;;;;;;5045215;28;20694;-23
2023/08/14 10:15:13;;;;;;;5.05;1.60;;;23.90;99.90;;;;;;5044036;28;20200;-31
2023/08/14 10:18:15;;;;;;;4.85;1.88;;;23.90;99.90;;;;;;5043961;28;20689;-31
2023/08/14 10:20:46;;;;;;;4.80;1.63;;;23.90;99.90;;;;;;5045244;28;20567;-31
2023/08/14 10:23:20;;;;;;;3.75;1.42;;;23.90;99.90;;;;;;5044230;28;20274;-31
2023/08/14 10:25:55;;;;;;;4.40;1.90;;;24.00;99.90;;;;;;5045356;28;20573;-31
2023/08/14 10:28:23;;;;;;;5.35;1.65;;;24.00;99.90;;;;;;5048123;28;20216;-31
2023/08/14 10:30:55;;;;;;;5.13;1.48;;;24.10;99.90;;;;;;5049247;28;20657;-31
2023/08/14 10:33:23;;;;;;;4.75;1.77;;;24.10;99.90;;;;;;5047443;28;20230;-31
2023/08/14 10:35:55;;;;;;;5.88;1.63;;;24.20;99.90;;;;;;5048021;28;20280;-31
2023/08/14 10:38:42;;;;;;;4.25;1.52;;;24.20;99.90;;;;;;5048697;28;20329;-31
2023/08/14 10:41:15;;;;;;;5.03;1.95;;;24.30;99.90;;;;;;5048774;28;20767;-31
2023/08/14 10:43:56;;;;;;;4.60;1.65;;;24.30;99.90;;;;;;5032027;28;20211;-31
2023/08/14 10:46:23;;;;;;;4.05;1.42;;;24.40;99.90;;;;;;5047540;28;20665;-31
2023/08/14 10:48:52;;;;;;;4.93;1.73;;;24.40;99.90;;;;;;5048663;28;20327;-31
2023/08/14 10:51:21;;;;;;;5.65;2.08;;;24.40;99.90;;;;;;5047362;28;20203;-31
2023/08/14 10:53:48;;;;;;;4.55;1.65;;;24.50;99.90;;;;;;5047460;28;20204;-31
2023/08/14 10:56:16;;;;;;;5.65;1.70;;;24.50;99.90;;;;;;5030703;28;20215;-31
2023/08/14 10:58:53;;;;;;;5.43;1.88;;;24.60;99.90;;;;;;5046972;28;20200;-31
2023/08/14 11:01:20;;;;;;;3.55;1.60;;;24.60;99.90;;;;;;5047855;28;20212;-31
2023/08/14 11:04:04;;;;;;;4.50;1.60;;;24.70;99.90;;;;;;5048689;28;20340;-31
2023/08/14 11:07:05;;;;;;;4.72;1.73;;;24.70;99.90;;;;;;5048901;28;20250;-31
2023/08/14 11:09:34;;;;;;;4.38;1.60;;;24.70;99.90;;;;;;5047003;28;20256;-31
2023/08/14 11:12:12;;;;;;;5.13;1.83;;;24.80;99.90;;;;;;5047256;28;20204;-31
2023/08/14 11:14:41;;;;;;;5.75;1.88;;;24.80;99.90;;;;;;5048630;28;20224;-30
2023/08/14 11:17:11;;;;;;;3.50;1.48;;;24.90;99.90;;;;;;5046795;28;20192;-31
2023/08/14 11:19:39;;;;;;;5.70;2.10;;;24.90;99.90;;;;;;5046708;28;20298;-31
2023/08/14 11:22:20;;;;;;;4.43;1.90;;;25.00;99.90;;;;;;5046931;28;20212;-32
2023/08/14 11:24:48;;;;;;;5.35;1.90;;;25.00;99.90;;;;;;5046935;28;21082;-31
2023/08/14 11:27:16;;;;;;;6.35;1.63;;;25.00;99.90;;;;;;5046415;28;20713;-31
2023/08/14 11:29:48;;;;;;;5.30;2.30;;;25.00;99.90;;;;;;5046791;28;20694;-31
2023/08/14 11:32:21;;;;;;;4.97;2.25;;;25.10;99.90;;;;;;5048588;28;20203;-31
2023/08/14 11:34:50;;;;;;;5.85;2.28;;;25.10;99.90;;;;;;5046669;28;20201;-31
2023/08/14 11:37:19;;;;;;;7.03;2.25;;;25.10;99.90;;;;;;5048248;28;20483;-31
2023/08/14 11:39:54;;;;;;;4.40;2.20;;;25.20;99.90;;;;;;5046584;28;20420;-31
2023/08/14 11:42:24;;;;;;;5.70;2.13;;;25.20;99.90;;;;;;5047499;28;20239;-31
2023/08/14 11:44:55;;;;;;;5.43;2.10;;;25.20;99.90;;;;;;5047785;28;20208;-31
2023/08/14 11:47:22;;;;;;;4.55;2.15;;;25.30;99.90;;;;;;5046347;28;20291;-31
2023/08/14 11:49:50;;;;;;;3.47;1.60;;;25.30;99.90;;;;;;5047946;28;20201;-31
2023/08/14 11:52:21;;;;;;;6.55;1.90;;;25.40;99.90;;;;;;5047641;28;20201;-31
2023/08/14 11:54:50;;;;;;;6.40;1.88;;;25.40;99.90;;;;;;5046140;28;20211;-31
2023/08/14 11:57:39;;;;;;;5.43;1.95;;;25.50;99.90;;;;;;5047520;28;20610;-31
2023/08/14 12:00:13;;;;;;;4.50;1.70;;;25.50;99.90;;;;;;5046304;28;20223;-31
2023/08/14 12:02:44;;;;;;;7.85;2.15;;;25.60;99.90;;;;;;5046240;28;20227;-31
2023/08/14 12:05:11;;;;;;;4.70;1.80;;;25.60;99.90;;;;;;5047880;28;20292;-31
2023/08/14 12:07:44;;;;;;;3.70;1.80;;;25.70;99.90;;;;;;5047581;28;20220;-31
2023/08/14 12:10:18;;;;;;;6.15;1.98;;;25.70;99.90;;;;;;5046600;28;20196;-31
2023/08/14 12:12:47;;;;;;;5.20;2.00;;;25.80;99.90;;;;;;5047615;28;20216;-31
2023/08/14 12:15:22;;;;;;;5.55;1.95;;;25.80;99.90;;;;;;5048211;28;20204;-32
2023/08/14 12:17:52;;;;;;;4.35;1.70;;;25.80;99.90;;;;;;5047488;28;20266;-31
2023/08/14 12:20:23;;;;;;;4.68;1.70;;;25.90;99.90;;;;;;5045776;28;20200;-31
2023/08/14 12:22:51;;;;;;;4.07;1.70;;;25.90;99.90;;;;;;5045629;28;20207;-31
2023/08/14 12:25:30;;;;;;;7.70;1.65;;;25.90;99.90;;;;;;5047324;28;20199;-23
2023/08/14 12:27:58;;;;;;;5.28;1.85;;;26.00;99.90;;;;;;5045499;28;20827;-23
2023/08/14 12:30:26;;;;;;;4.50;1.60;;;26.00;99.90;;;;;;5029427;28;20200;-24
2023/08/14 12:32:53;;;;;;;3.75;1.80;;;26.10;99.90;;;;;;5045492;28;20212;-23
2023/08/14 12:35:21;;;;;;;5.03;1.80;;;26.10;99.90;;;;;;5046529;28;20299;-23
2023/08/14 12:37:50;;;;;;;4.50;1.52;;;26.10;99.90;;;;;;5045158;28;20701;-23
2023/08/14 12:40:22;;;;;;;5.60;1.90;;;26.20;99.90;;;;;;5045322;28;20587;-23
2023/08/14 12:42:51;;;;;;;4.65;1.52;;;26.20;99.90;;;;;;5046780;28;20195;-31
2023/08/14 12:45:25;;;;;;;3.60;1.67;;;26.20;99.90;;;;;;5013049;28;20777;-31
2023/08/14 12:47:55;;;;;;;4.53;1.83;;;26.20;99.90;;;;;;5046498;28;20223;-31
2023/08/14 12:50:24;;;;;;;3.45;1.75;;;26.30;99.90;;;;;;5046261;28;20197;-31
2023/08/14 12:52:52;;;;;;;6.13;1.90;;;26.30;99.90;;;;;;5047143;28;20620;-31
2023/08/14 12:55:21;;;;;;;4.63;1.52;;;26.30;99.90;;;;;;5028979;28;20215;-31
2023/08/14 12:57:53;;;;;;;5.28;1.65;;;26.40;99.90;;;;;;5045082;28;20240;-31
2023/08/14 13:00:21;;;;;;;4.95;1.83;;;26.40;99.90;;;;;;5046397;28;20612;-31
2023/08/14 13:02:51;;;;;;;3.78;1.83;;;26.50;99.90;;;;;;5046985;28;20220;-31